sensor_id;sensor_type;location;lat;lon;timestamp;pressure;altitude;pressure_sealevel;temperature;humidity
82416;BME280;72058;47.782;10.618;2023-12-28T00:01:07;93631.72;;;5.68;44.41
82416;BME280;72058;47.782;10.618;2023-12-28T00:03:33;93626.53;;;5.71;44.14
82416;BME280;72058;47.782;10.618;2023-12-28T00:05:58;93626.78;;;5.75;44.38
82416;BME280;72058;47.782;10.618;2023-12-28T00:08:23;93627.75;;;5.60;44.53
82416;BME280;72058;47.782;10.618;2023-12-28T00:10:49;93635.78;;;5.65;44.71
82416;BME280;72058;47.782;10.618;2023-12-28T00:13:14;93640.19;;;5.56;44.54
82416;BME280;72058;47.782;10.618;2023-12-28T00:15:40;93646.31;;;5.62;44.49
82416;BME280;72058;47.782;10.618;2023-12-28T00:18:05;93649.34;;;5.60;44.64
82416;BME280;72058;47.782;10.618;2023-12-28T00:20:30;93650.09;;;5.61;45.03
82416;BME280;72058;47.782;10.618;2023-12-28T00:22:59;93647.53;;;5.51;44.76
82416;BME280;72058;47.782;10.618;2023-12-28T00:25:25;93647.63;;;5.41;45.04
82416;BME280;72058;47.782;10.618;2023-12-28T00:27:50;93652.94;;;5.51;44.71
82416;BME280;72058;47.782;10.618;2023-12-28T00:30:16;93658.34;;;5.46;45.38
82416;BME280;72058;47.782;10.618;2023-12-28T00:32:43;93657.34;;;5.37;45.31
82416;BME280;72058;47.782;10.618;2023-12-28T00:35:10;93657.53;;;5.45;46.12
82416;BME280;72058;47.782;10.618;2023-12-28T00:37:35;93664.59;;;5.41;46.34
82416;BME280;72058;47.782;10.618;2023-12-28T00:40:01;93665.22;;;5.33;46.04
82416;BME280;72058;47.782;10.618;2023-12-28T00:42:26;93664.22;;;5.24;46.29
82416;BME280;72058;47.782;10.618;2023-12-28T00:44:51;93659.22;;;5.07;46.41
82416;BME280;72058;47.782;10.618;2023-12-28T00:47:17;93657.28;;;5.13;45.98
82416;BME280;72058;47.782;10.618;2023-12-28T00:49:43;93664.56;;;5.12;46.52
82416;BME280;72058;47.782;10.618;2023-12-28T00:52:11;93662.38;;;5.14;46.23
82416;BME280;72058;47.782;10.618;2023-12-28T00:54:37;93680.06;;;5.30;46.69
82416;BME280;72058;47.782;10.618;2023-12-28T00:57:05;93683.28;;;5.32;46.30
82416;BME280;72058;47.782;10.618;2023-12-28T00:59:31;93680.47;;;5.14;46.27
82416;BME280;72058;47.782;10.618;2023-12-28T01:01:56;93682.13;;;5.05;46.23
82416;BME280;72058;47.782;10.618;2023-12-28T01:04:22;93668.00;;;5.23;46.54
82416;BME280;72058;47.782;10.618;2023-12-28T01:06:51;93669.25;;;5.02;47.10
82416;BME280;72058;47.782;10.618;2023-12-28T01:09:17;93666.41;;;4.78;47.44
82416;BME280;72058;47.782;10.618;2023-12-28T01:11:42;93659.97;;;4.74;47.63
82416;BME280;72058;47.782;10.618;2023-12-28T01:14:07;93653.25;;;4.76;47.25
82416;BME280;72058;47.782;10.618;2023-12-28T01:16:33;93658.53;;;4.86;47.01
82416;BME280;72058;47.782;10.618;2023-12-28T01:18:58;93669.31;;;4.91;47.37
82416;BME280;72058;47.782;10.618;2023-12-28T01:21:24;93668.72;;;5.00;47.18
82416;BME280;72058;47.782;10.618;2023-12-28T01:23:53;93674.59;;;5.07;46.77
82416;BME280;72058;47.782;10.618;2023-12-28T01:26:19;93685.19;;;4.93;47.35
82416;BME280;72058;47.782;10.618;2023-12-28T01:28:45;93686.34;;;4.82;47.39
82416;BME280;72058;47.782;10.618;2023-12-28T01:31:10;93689.91;;;4.72;47.72
82416;BME280;72058;47.782;10.618;2023-12-28T01:33:35;93695.81;;;4.69;48.05
82416;BME280;72058;47.782;10.618;2023-12-28T01:36:01;93700.03;;;4.85;48.11
82416;BME280;72058;47.782;10.618;2023-12-28T01:38:27;93712.44;;;4.86;47.94
82416;BME280;72058;47.782;10.618;2023-12-28T01:40:52;93710.41;;;4.63;48.62
82416;BME280;72058;47.782;10.618;2023-12-28T01:43:18;93704.59;;;4.36;49.35
82416;BME280;72058;47.782;10.618;2023-12-28T01:45:43;93706.81;;;4.24;49.97
82416;BME280;72058;47.782;10.618;2023-12-28T01:48:08;93702.03;;;4.05;50.44
82416;BME280;72058;47.782;10.618;2023-12-28T01:50:35;93714.38;;;4.16;50.38
82416;BME280;72058;47.782;10.618;2023-12-28T01:53:00;93711.16;;;4.14;50.74
82416;BME280;72058;47.782;10.618;2023-12-28T01:55:27;93707.16;;;4.07;50.99
82416;BME280;72058;47.782;10.618;2023-12-28T01:57:53;93717.66;;;3.98;51.36
82416;BME280;72058;47.782;10.618;2023-12-28T02:00:21;93709.09;;;3.81;51.71
82416;BME280;72058;47.782;10.618;2023-12-28T02:02:47;93702.63;;;3.87;51.75
82416;BME280;72058;47.782;10.618;2023-12-28T02:05:14;93686.47;;;3.92;52.02
82416;BME280;72058;47.782;10.618;2023-12-28T02:07:40;93681.81;;;4.13;51.81
82416;BME280;72058;47.782;10.618;2023-12-28T02:10:06;93696.00;;;4.39;51.08
82416;BME280;72058;47.782;10.618;2023-12-28T02:12:32;93694.94;;;4.35;50.18
82416;BME280;72058;47.782;10.618;2023-12-28T02:14:58;93702.44;;;4.38;50.55
82416;BME280;72058;47.782;10.618;2023-12-28T02:17:29;93696.09;;;4.13;50.83
82416;BME280;72058;47.782;10.618;2023-12-28T02:19:56;93691.06;;;3.92;51.33
82416;BME280;72058;47.782;10.618;2023-12-28T02:22:26;93701.31;;;3.69;51.91
82416;BME280;72058;47.782;10.618;2023-12-28T02:25:09;93696.19;;;3.73;52.47
82416;BME280;72058;47.782;10.618;2023-12-28T02:27:36;93702.38;;;3.68;52.21
82416;BME280;72058;47.782;10.618;2023-12-28T02:30:04;93695.16;;;3.49;52.88
82416;BME280;72058;47.782;10.618;2023-12-28T02:32:39;93697.56;;;3.45;53.08
82416;BME280;72058;47.782;10.618;2023-12-28T02:35:31;93704.84;;;3.50;52.76
82416;BME280;72058;47.782;10.618;2023-12-28T02:38:00;93710.47;;;3.53;52.93
82416;BME280;72058;47.782;10.618;2023-12-28T02:40:27;93710.22;;;3.50;52.42
82416;BME280;72058;47.782;10.618;2023-12-28T02:42:53;93702.41;;;3.53;52.51
82416;BME280;72058;47.782;10.618;2023-12-28T02:45:18;93708.59;;;3.43;52.47
82416;BME280;72058;47.782;10.618;2023-12-28T02:47:45;93709.94;;;3.51;52.04
82416;BME280;72058;47.782;10.618;2023-12-28T02:50:10;93702.41;;;3.53;51.68
82416;BME280;72058;47.782;10.618;2023-12-28T02:52:36;93703.22;;;3.38;52.26
82416;BME280;72058;47.782;10.618;2023-12-28T02:55:01;93700.28;;;3.40;52.49
82416;BME280;72058;47.782;10.618;2023-12-28T02:57:26;93699.97;;;3.52;52.04
82416;BME280;72058;47.782;10.618;2023-12-28T02:59:52;93702.41;;;3.58;51.63
82416;BME280;72058;47.782;10.618;2023-12-28T03:02:17;93694.03;;;3.70;51.11
82416;BME280;72058;47.782;10.618;2023-12-28T03:04:42;93695.09;;;3.84;50.58
82416;BME280;72058;47.782;10.618;2023-12-28T03:07:08;93704.22;;;3.88;50.01
82416;BME280;72058;47.782;10.618;2023-12-28T03:09:33;93708.53;;;3.99;49.83
82416;BME280;72058;47.782;10.618;2023-12-28T03:12:00;93708.22;;;4.06;49.67
82416;BME280;72058;47.782;10.618;2023-12-28T03:14:25;93708.19;;;4.16;49.17
82416;BME280;72058;47.782;10.618;2023-12-28T03:16:51;93712.44;;;4.32;48.46
82416;BME280;72058;47.782;10.618;2023-12-28T03:19:16;93713.50;;;4.36;48.23
82416;BME280;72058;47.782;10.618;2023-12-28T03:21:42;93711.88;;;4.40;47.34
82416;BME280;72058;47.782;10.618;2023-12-28T03:24:08;93710.75;;;4.51;46.91
82416;BME280;72058;47.782;10.618;2023-12-28T03:26:38;93701.53;;;4.63;47.32
82416;BME280;72058;47.782;10.618;2023-12-28T03:29:05;93701.75;;;4.71;46.32
82416;BME280;72058;47.782;10.618;2023-12-28T03:31:30;93703.03;;;4.84;46.32
82416;BME280;72058;47.782;10.618;2023-12-28T03:33:56;93690.28;;;4.94;45.96
82416;BME280;72058;47.782;10.618;2023-12-28T03:36:21;93699.38;;;5.09;45.79
82416;BME280;72058;47.782;10.618;2023-12-28T03:38:48;93705.25;;;5.16;44.84
82416;BME280;72058;47.782;10.618;2023-12-28T03:41:20;93706.53;;;5.23;44.67
82416;BME280;72058;47.782;10.618;2023-12-28T03:43:46;93704.81;;;5.38;46.03
82416;BME280;72058;47.782;10.618;2023-12-28T03:46:12;93705.75;;;5.57;44.19
82416;BME280;72058;47.782;10.618;2023-12-28T03:48:38;93710.16;;;5.77;43.05
82416;BME280;72058;47.782;10.618;2023-12-28T03:51:04;93709.25;;;5.91;42.64
82416;BME280;72058;47.782;10.618;2023-12-28T03:53:29;93705.56;;;6.06;42.15
82416;BME280;72058;47.782;10.618;2023-12-28T03:55:56;93709.25;;;6.15;42.42
82416;BME280;72058;47.782;10.618;2023-12-28T03:58:22;93703.47;;;6.27;42.55
82416;BME280;72058;47.782;10.618;2023-12-28T04:00:47;93708.75;;;6.37;42.15
82416;BME280;72058;47.782;10.618;2023-12-28T04:03:12;93710.34;;;6.38;43.13
82416;BME280;72058;47.782;10.618;2023-12-28T04:05:38;93711.97;;;6.39;43.52
82416;BME280;72058;47.782;10.618;2023-12-28T04:08:06;93710.75;;;6.50;42.80
82416;BME280;72058;47.782;10.618;2023-12-28T04:10:33;93702.50;;;6.41;43.88
82416;BME280;72058;47.782;10.618;2023-12-28T04:12:59;93703.22;;;6.47;43.36
82416;BME280;72058;47.782;10.618;2023-12-28T04:15:26;93694.75;;;6.54;42.08
82416;BME280;72058;47.782;10.618;2023-12-28T04:17:51;93695.81;;;6.58;41.43
82416;BME280;72058;47.782;10.618;2023-12-28T04:20:17;93705.53;;;6.59;42.26
82416;BME280;72058;47.782;10.618;2023-12-28T04:22:42;93711.78;;;6.54;43.57
82416;BME280;72058;47.782;10.618;2023-12-28T04:25:09;93720.13;;;6.58;43.88
82416;BME280;72058;47.782;10.618;2023-12-28T04:27:34;93719.56;;;6.61;43.47
82416;BME280;72058;47.782;10.618;2023-12-28T04:30:00;93712.88;;;6.53;42.46
82416;BME280;72058;47.782;10.618;2023-12-28T04:32:25;93719.41;;;6.52;43.36
82416;BME280;72058;47.782;10.618;2023-12-28T04:34:51;93716.97;;;6.51;43.76
82416;BME280;72058;47.782;10.618;2023-12-28T04:37:16;93720.19;;;6.53;42.85
82416;BME280;72058;47.782;10.618;2023-12-28T04:39:41;93713.66;;;6.54;42.59
82416;BME280;72058;47.782;10.618;2023-12-28T04:42:07;93718.50;;;6.57;41.29
82416;BME280;72058;47.782;10.618;2023-12-28T04:44:37;93723.41;;;6.55;40.72
82416;BME280;72058;47.782;10.618;2023-12-28T04:47:03;93715.81;;;6.57;42.15
82416;BME280;72058;47.782;10.618;2023-12-28T04:49:29;93711.13;;;6.62;40.81
82416;BME280;72058;47.782;10.618;2023-12-28T04:51:54;93713.56;;;6.64;41.60
82416;BME280;72058;47.782;10.618;2023-12-28T04:54:20;93709.47;;;6.66;39.90
82416;BME280;72058;47.782;10.618;2023-12-28T04:56:46;93714.31;;;6.69;41.25
82416;BME280;72058;47.782;10.618;2023-12-28T04:59:11;93709.94;;;6.73;40.20
82416;BME280;72058;47.782;10.618;2023-12-28T05:01:43;93716.88;;;6.79;41.50
82416;BME280;72058;47.782;10.618;2023-12-28T05:04:09;93717.84;;;6.89;40.25
82416;BME280;72058;47.782;10.618;2023-12-28T05:06:34;93711.19;;;7.00;40.22
82416;BME280;72058;47.782;10.618;2023-12-28T05:08:59;93719.19;;;7.10;39.67
82416;BME280;72058;47.782;10.618;2023-12-28T05:11:25;93716.81;;;7.22;38.93
82416;BME280;72058;47.782;10.618;2023-12-28T05:13:50;93713.47;;;7.30;40.07
82416;BME280;72058;47.782;10.618;2023-12-28T05:16:16;93713.59;;;7.20;39.39
82416;BME280;72058;47.782;10.618;2023-12-28T05:18:41;93724.38;;;7.25;39.75
82416;BME280;72058;47.782;10.618;2023-12-28T05:21:07;93713.53;;;7.25;40.29
82416;BME280;72058;47.782;10.618;2023-12-28T05:23:33;93709.50;;;7.22;40.33
82416;BME280;72058;47.782;10.618;2023-12-28T05:25:58;93713.81;;;7.23;39.83
82416;BME280;72058;47.782;10.618;2023-12-28T05:28:23;93709.13;;;7.29;39.04
82416;BME280;72058;47.782;10.618;2023-12-28T05:30:48;93709.75;;;7.26;39.86
82416;BME280;72058;47.782;10.618;2023-12-28T05:33:14;93699.28;;;7.19;40.08
82416;BME280;72058;47.782;10.618;2023-12-28T05:35:39;93694.88;;;7.23;40.05
82416;BME280;72058;47.782;10.618;2023-12-28T05:38:04;93701.69;;;7.21;41.22
82416;BME280;72058;47.782;10.618;2023-12-28T05:40:30;93699.22;;;7.24;40.95
82416;BME280;72058;47.782;10.618;2023-12-28T05:42:55;93701.09;;;7.24;40.48
82416;BME280;72058;47.782;10.618;2023-12-28T05:45:20;93700.22;;;7.29;40.26
82416;BME280;72058;47.782;10.618;2023-12-28T05:47:46;93699.94;;;7.30;39.26
82416;BME280;72058;47.782;10.618;2023-12-28T05:50:11;93701.34;;;7.28;40.17
82416;BME280;72058;47.782;10.618;2023-12-28T05:52:37;93704.03;;;7.28;39.20
82416;BME280;72058;47.782;10.618;2023-12-28T05:55:03;93713.16;;;7.32;39.95
82416;BME280;72058;47.782;10.618;2023-12-28T05:57:29;93717.78;;;7.31;40.39
82416;BME280;72058;47.782;10.618;2023-12-28T05:59:56;93717.63;;;7.22;39.64
82416;BME280;72058;47.782;10.618;2023-12-28T06:02:21;93720.34;;;7.22;39.00
82416;BME280;72058;47.782;10.618;2023-12-28T06:04:46;93714.41;;;7.20;40.08
82416;BME280;72058;47.782;10.618;2023-12-28T06:07:12;93716.81;;;7.22;39.84
82416;BME280;72058;47.782;10.618;2023-12-28T06:09:37;93710.16;;;7.14;40.79
82416;BME280;72058;47.782;10.618;2023-12-28T06:12:04;93717.47;;;7.14;41.19
82416;BME280;72058;47.782;10.618;2023-12-28T06:14:30;93706.66;;;7.14;40.59
82416;BME280;72058;47.782;10.618;2023-12-28T06:16:55;93710.31;;;7.23;40.69
82416;BME280;72058;47.782;10.618;2023-12-28T06:19:21;93707.31;;;7.24;40.17
82416;BME280;72058;47.782;10.618;2023-12-28T06:21:47;93695.69;;;7.24;39.96
82416;BME280;72058;47.782;10.618;2023-12-28T06:24:13;93695.41;;;7.26;40.01
82416;BME280;72058;47.782;10.618;2023-12-28T06:26:40;93691.09;;;7.24;39.33
82416;BME280;72058;47.782;10.618;2023-12-28T06:29:06;93690.72;;;7.31;37.81
82416;BME280;72058;47.782;10.618;2023-12-28T06:31:31;93691.75;;;7.35;38.33
82416;BME280;72058;47.782;10.618;2023-12-28T06:34:01;93693.81;;;7.24;39.95
82416;BME280;72058;47.782;10.618;2023-12-28T06:36:26;93693.28;;;7.22;39.51
82416;BME280;72058;47.782;10.618;2023-12-28T06:38:51;93691.38;;;7.23;37.91
82416;BME280;72058;47.782;10.618;2023-12-28T06:41:17;93692.97;;;7.43;36.27
82416;BME280;72058;47.782;10.618;2023-12-28T06:43:42;93697.50;;;7.29;36.94
82416;BME280;72058;47.782;10.618;2023-12-28T06:46:07;93707.09;;;7.21;36.86
82416;BME280;72058;47.782;10.618;2023-12-28T06:48:33;93704.47;;;7.16;37.03
82416;BME280;72058;47.782;10.618;2023-12-28T06:50:58;93704.91;;;7.04;37.14
82416;BME280;72058;47.782;10.618;2023-12-28T06:53:24;93705.50;;;7.01;37.68
82416;BME280;72058;47.782;10.618;2023-12-28T06:55:49;93703.38;;;6.98;37.39
82416;BME280;72058;47.782;10.618;2023-12-28T06:58:14;93699.94;;;6.93;37.72
82416;BME280;72058;47.782;10.618;2023-12-28T07:00:39;93699.19;;;6.87;38.32
82416;BME280;72058;47.782;10.618;2023-12-28T07:03:06;93698.97;;;6.83;38.64
82416;BME280;72058;47.782;10.618;2023-12-28T07:05:32;93693.72;;;6.73;39.23
82416;BME280;72058;47.782;10.618;2023-12-28T07:07:58;93690.19;;;6.73;39.53
82416;BME280;72058;47.782;10.618;2023-12-28T07:10:23;93692.56;;;6.56;40.40
82416;BME280;72058;47.782;10.618;2023-12-28T07:12:48;93695.72;;;6.63;39.61
82416;BME280;72058;47.782;10.618;2023-12-28T07:15:14;93688.84;;;6.52;40.08
82416;BME280;72058;47.782;10.618;2023-12-28T07:17:40;93685.81;;;6.58;39.76
82416;BME280;72058;47.782;10.618;2023-12-28T07:20:05;93684.31;;;6.47;40.25
82416;BME280;72058;47.782;10.618;2023-12-28T07:22:31;93689.44;;;6.48;40.55
82416;BME280;72058;47.782;10.618;2023-12-28T07:24:56;93688.69;;;6.43;40.50
82416;BME280;72058;47.782;10.618;2023-12-28T07:27:22;93691.69;;;6.41;40.50
82416;BME280;72058;47.782;10.618;2023-12-28T07:29:47;93690.34;;;6.39;40.96
82416;BME280;72058;47.782;10.618;2023-12-28T07:32:12;93689.44;;;6.48;40.72
82416;BME280;72058;47.782;10.618;2023-12-28T07:34:39;93688.34;;;6.50;40.67
82416;BME280;72058;47.782;10.618;2023-12-28T07:37:04;93690.47;;;6.53;41.79
82416;BME280;72058;47.782;10.618;2023-12-28T07:39:30;93689.88;;;6.56;40.73
82416;BME280;72058;47.782;10.618;2023-12-28T07:41:55;93702.28;;;6.57;40.60
82416;BME280;72058;47.782;10.618;2023-12-28T07:44:21;93683.63;;;6.60;40.85
82416;BME280;72058;47.782;10.618;2023-12-28T07:46:46;93687.78;;;6.53;40.94
82416;BME280;72058;47.782;10.618;2023-12-28T07:49:11;93690.47;;;6.53;40.93
82416;BME280;72058;47.782;10.618;2023-12-28T07:51:37;93693.22;;;6.47;41.06
82416;BME280;72058;47.782;10.618;2023-12-28T07:54:02;93686.38;;;6.55;41.31
82416;BME280;72058;47.782;10.618;2023-12-28T07:56:27;93688.13;;;6.65;41.66
82416;BME280;72058;47.782;10.618;2023-12-28T07:58:53;93691.09;;;6.68;41.54
82416;BME280;72058;47.782;10.618;2023-12-28T08:01:18;93686.03;;;6.80;41.65
82416;BME280;72058;47.782;10.618;2023-12-28T08:03:44;93682.31;;;6.95;43.70
82416;BME280;72058;47.782;10.618;2023-12-28T08:06:09;93682.53;;;6.99;41.56
82416;BME280;72058;47.782;10.618;2023-12-28T08:08:37;93693.78;;;6.87;41.51
82416;BME280;72058;47.782;10.618;2023-12-28T08:11:03;93695.53;;;6.97;41.29
82416;BME280;72058;47.782;10.618;2023-12-28T08:13:28;93706.28;;;7.20;43.43
82416;BME280;72058;47.782;10.618;2023-12-28T08:15:54;93711.22;;;7.18;40.81
82416;BME280;72058;47.782;10.618;2023-12-28T08:18:19;93709.38;;;7.33;42.51
82416;BME280;72058;47.782;10.618;2023-12-28T08:20:44;93720.13;;;7.19;41.29
82416;BME280;72058;47.782;10.618;2023-12-28T08:23:10;93720.72;;;7.16;41.35
82416;BME280;72058;47.782;10.618;2023-12-28T08:25:35;93714.41;;;7.20;41.40
82416;BME280;72058;47.782;10.618;2023-12-28T08:28:00;93712.50;;;7.21;41.92
82416;BME280;72058;47.782;10.618;2023-12-28T08:30:26;93711.94;;;7.24;41.98
82416;BME280;72058;47.782;10.618;2023-12-28T08:32:52;93717.56;;;7.28;41.59
82416;BME280;72058;47.782;10.618;2023-12-28T08:35:18;93716.59;;;7.37;41.06
82416;BME280;72058;47.782;10.618;2023-12-28T08:37:43;93717.25;;;7.48;40.90
82416;BME280;72058;47.782;10.618;2023-12-28T08:40:09;93723.38;;;7.53;40.13
82416;BME280;72058;47.782;10.618;2023-12-28T08:42:34;93725.78;;;7.55;41.78
82416;BME280;72058;47.782;10.618;2023-12-28T08:44:59;93731.94;;;7.60;43.74
82416;BME280;72058;47.782;10.618;2023-12-28T08:47:25;93739.19;;;7.65;44.25
82416;BME280;72058;47.782;10.618;2023-12-28T08:49:50;93745.63;;;7.69;44.19
82416;BME280;72058;47.782;10.618;2023-12-28T08:52:15;93754.31;;;7.66;44.94
82416;BME280;72058;47.782;10.618;2023-12-28T08:54:41;93755.66;;;7.69;44.94
82416;BME280;72058;47.782;10.618;2023-12-28T08:57:06;93755.94;;;7.67;45.13
82416;BME280;72058;47.782;10.618;2023-12-28T08:59:35;93763.97;;;7.72;45.09
82416;BME280;72058;47.782;10.618;2023-12-28T09:02:01;93760.03;;;7.65;45.29
82416;BME280;72058;47.782;10.618;2023-12-28T09:04:26;93757.25;;;7.70;45.25
82416;BME280;72058;47.782;10.618;2023-12-28T09:06:52;93746.38;;;7.88;41.48
82416;BME280;72058;47.782;10.618;2023-12-28T09:09:18;93757.22;;;7.88;42.80
82416;BME280;72058;47.782;10.618;2023-12-28T09:11:43;93747.69;;;7.91;42.75
82416;BME280;72058;47.782;10.618;2023-12-28T09:14:08;93745.91;;;8.00;42.24
82416;BME280;72058;47.782;10.618;2023-12-28T09:16:34;93741.81;;;8.03;41.95
82416;BME280;72058;47.782;10.618;2023-12-28T09:19:00;93749.25;;;8.11;41.33
82416;BME280;72058;47.782;10.618;2023-12-28T09:21:26;93739.03;;;8.21;40.74
82416;BME280;72058;47.782;10.618;2023-12-28T09:23:51;93745.91;;;8.32;40.21
82416;BME280;72058;47.782;10.618;2023-12-28T09:26:16;93731.09;;;8.44;40.80
82416;BME280;72058;47.782;10.618;2023-12-28T09:28:43;93730.16;;;8.48;41.80
82416;BME280;72058;47.782;10.618;2023-12-28T09:31:09;93733.09;;;8.52;41.28
82416;BME280;72058;47.782;10.618;2023-12-28T09:33:34;93731.47;;;8.64;41.18
82416;BME280;72058;47.782;10.618;2023-12-28T09:36:03;93733.69;;;8.62;39.64
82416;BME280;72058;47.782;10.618;2023-12-28T09:38:28;93735.50;;;8.67;39.08
82416;BME280;72058;47.782;10.618;2023-12-28T09:40:54;93736.19;;;8.72;37.48
82416;BME280;72058;47.782;10.618;2023-12-28T09:43:30;93730.19;;;8.75;40.19
82416;BME280;72058;47.782;10.618;2023-12-28T09:46:06;93730.69;;;8.78;39.35
82416;BME280;72058;47.782;10.618;2023-12-28T09:48:33;93725.84;;;8.74;39.28
82416;BME280;72058;47.782;10.618;2023-12-28T09:50:58;93725.16;;;8.83;37.91
82416;BME280;72058;47.782;10.618;2023-12-28T09:53:25;93714.91;;;8.93;37.99
82416;BME280;72058;47.782;10.618;2023-12-28T09:55:51;93716.69;;;8.98;39.91
82416;BME280;72058;47.782;10.618;2023-12-28T09:58:17;93710.97;;;8.99;37.96
82416;BME280;72058;47.782;10.618;2023-12-28T10:00:44;93706.84;;;9.02;39.42
82416;BME280;72058;47.782;10.618;2023-12-28T10:03:12;93712.44;;;9.05;38.48
82416;BME280;72058;47.782;10.618;2023-12-28T10:05:37;93710.94;;;9.13;38.24
82416;BME280;72058;47.782;10.618;2023-12-28T10:08:03;93708.00;;;9.23;36.66
82416;BME280;72058;47.782;10.618;2023-12-28T10:10:29;93702.78;;;9.27;37.47
82416;BME280;72058;47.782;10.618;2023-12-28T10:12:54;93693.69;;;9.31;38.08
82416;BME280;72058;47.782;10.618;2023-12-28T10:15:20;93691.63;;;9.28;38.51
82416;BME280;72058;47.782;10.618;2023-12-28T10:17:46;93698.53;;;9.34;36.52
82416;BME280;72058;47.782;10.618;2023-12-28T10:20:11;93693.81;;;9.26;37.60
82416;BME280;72058;47.782;10.618;2023-12-28T10:22:37;93700.06;;;9.27;38.18
82416;BME280;72058;47.782;10.618;2023-12-28T10:25:03;93691.34;;;9.38;35.90
82416;BME280;72058;47.782;10.618;2023-12-28T10:27:29;93690.25;;;9.39;37.56
82416;BME280;72058;47.782;10.618;2023-12-28T10:29:57;93685.44;;;9.36;37.09
82416;BME280;72058;47.782;10.618;2023-12-28T10:32:23;93690.03;;;9.49;36.00
82416;BME280;72058;47.782;10.618;2023-12-28T10:34:53;93678.34;;;9.49;36.02
82416;BME280;72058;47.782;10.618;2023-12-28T10:37:20;93692.13;;;9.52;35.71
82416;BME280;72058;47.782;10.618;2023-12-28T10:39:47;93694.03;;;9.52;37.16
82416;BME280;72058;47.782;10.618;2023-12-28T10:42:21;93691.44;;;9.47;36.54
82416;BME280;72058;47.782;10.618;2023-12-28T10:44:52;93685.25;;;9.55;36.41
82416;BME280;72058;47.782;10.618;2023-12-28T10:47:23;93685.31;;;9.64;35.71
82416;BME280;72058;47.782;10.618;2023-12-28T10:49:51;93681.00;;;9.63;35.51
82416;BME280;72058;47.782;10.618;2023-12-28T10:52:20;93688.75;;;9.69;35.35
82416;BME280;72058;47.782;10.618;2023-12-28T10:57:33;93695.56;;;9.89;34.91
82416;BME280;72058;47.782;10.618;2023-12-28T11:00:12;93695.09;;;9.87;35.17
82416;BME280;72058;47.782;10.618;2023-12-28T11:02:43;93693.97;;;9.88;35.49
82416;BME280;72058;47.782;10.618;2023-12-28T11:05:12;93696.81;;;9.83;35.93
82416;BME280;72058;47.782;10.618;2023-12-28T11:07:38;93699.03;;;9.81;36.03
82416;BME280;72058;47.782;10.618;2023-12-28T11:10:06;93692.78;;;9.80;36.28
82416;BME280;72058;47.782;10.618;2023-12-28T11:12:32;93690.56;;;9.82;35.85
82416;BME280;72058;47.782;10.618;2023-12-28T11:14:59;93693.91;;;9.79;36.11
82416;BME280;72058;47.782;10.618;2023-12-28T11:17:25;93688.66;;;9.83;35.77
82416;BME280;72058;47.782;10.618;2023-12-28T11:19:52;93683.84;;;9.80;35.96
82416;BME280;72058;47.782;10.618;2023-12-28T11:22:19;93686.56;;;9.80;36.19
82416;BME280;72058;47.782;10.618;2023-12-28T11:24:45;93682.88;;;9.76;36.58
82416;BME280;72058;47.782;10.618;2023-12-28T11:27:11;93687.69;;;9.79;36.81
82416;BME280;72058;47.782;10.618;2023-12-28T11:29:37;93681.94;;;9.80;36.94
82416;BME280;72058;47.782;10.618;2023-12-28T11:32:03;93686.09;;;9.78;37.28
82416;BME280;72058;47.782;10.618;2023-12-28T11:34:32;93679.41;;;9.84;36.33
82416;BME280;72058;47.782;10.618;2023-12-28T11:37:09;93674.28;;;9.82;35.77
82416;BME280;72058;47.782;10.618;2023-12-28T11:39:38;93675.59;;;9.85;36.64
82416;BME280;72058;47.782;10.618;2023-12-28T11:42:09;93672.38;;;9.83;37.25
82416;BME280;72058;47.782;10.618;2023-12-28T11:44:42;93678.41;;;9.80;37.41
82416;BME280;72058;47.782;10.618;2023-12-28T11:47:21;93677.59;;;9.79;37.50
82416;BME280;72058;47.782;10.618;2023-12-28T11:49:48;93679.41;;;9.84;36.88
82416;BME280;72058;47.782;10.618;2023-12-28T11:52:30;93681.97;;;9.89;37.18
82416;BME280;72058;47.782;10.618;2023-12-28T11:54:55;93681.63;;;9.82;37.64
82416;BME280;72058;47.782;10.618;2023-12-28T11:57:21;93687.34;;;9.80;38.09
82416;BME280;72058;47.782;10.618;2023-12-28T11:59:57;93678.41;;;9.80;37.82
82416;BME280;72058;47.782;10.618;2023-12-28T12:02:23;93671.25;;;9.84;37.70
82416;BME280;72058;47.782;10.618;2023-12-28T12:04:55;93664.81;;;9.80;37.94
82416;BME280;72058;47.782;10.618;2023-12-28T12:07:26;93664.50;;;9.81;38.13
82416;BME280;72058;47.782;10.618;2023-12-28T12:09:58;93662.75;;;9.77;37.39
82416;BME280;72058;47.782;10.618;2023-12-28T12:12:24;93650.44;;;9.79;37.72
82416;BME280;72058;47.782;10.618;2023-12-28T12:14:50;93652.25;;;9.84;38.13
82416;BME280;72058;47.782;10.618;2023-12-28T12:17:15;93657.31;;;9.77;39.13
82416;BME280;72058;47.782;10.618;2023-12-28T12:19:42;93659.66;;;9.70;39.47
82416;BME280;72058;47.782;10.618;2023-12-28T12:22:08;93660.13;;;9.72;39.42
82416;BME280;72058;47.782;10.618;2023-12-28T12:24:33;93663.19;;;9.70;39.36
82416;BME280;72058;47.782;10.618;2023-12-28T12:27:01;93653.91;;;9.71;39.24
82416;BME280;72058;47.782;10.618;2023-12-28T12:29:29;93653.28;;;9.74;39.06
82416;BME280;72058;47.782;10.618;2023-12-28T12:31:55;93653.59;;;9.73;39.11
82416;BME280;72058;47.782;10.618;2023-12-28T12:34:21;93652.69;;;9.77;37.82
82416;BME280;72058;47.782;10.618;2023-12-28T12:36:47;93651.06;;;9.76;38.33
82416;BME280;72058;47.782;10.618;2023-12-28T12:39:14;93639.41;;;9.76;38.95
82416;BME280;72058;47.782;10.618;2023-12-28T12:41:39;93638.75;;;9.70;38.58
82416;BME280;72058;47.782;10.618;2023-12-28T12:44:05;93636.19;;;9.74;37.93
82416;BME280;72058;47.782;10.618;2023-12-28T12:46:31;93623.59;;;9.78;37.73
82416;BME280;72058;47.782;10.618;2023-12-28T12:48:57;93635.38;;;9.73;37.88
82416;BME280;72058;47.782;10.618;2023-12-28T12:51:23;93634.94;;;9.80;38.54
82416;BME280;72058;47.782;10.618;2023-12-28T12:53:49;93641.31;;;9.75;37.85
82416;BME280;72058;47.782;10.618;2023-12-28T12:56:14;93637.78;;;9.75;37.28
82416;BME280;72058;47.782;10.618;2023-12-28T12:58:40;93628.53;;;9.76;38.83